Time;durP1;ratioP1;P1;durP2;ratioP2;P2;SDS_P1;SDS_P2;PMS_P1;PMS_P2;Temp;Humidity;BMP_temperature;BMP_pressure;BME280_temperature;BME280_humidity;BME280_pressure;Samples;Min_cycle;Max_cycle;Signal;HPM_P1;HPM_P2
2021/04/30 00:00:50;;;;;;;9.27;8.30;;;11.70;99.90;;;;;;5077071;28;20227;-45
2021/04/30 00:03:16;;;;;;;11.37;8.60;;;11.60;99.90;;;;;;5065895;28;20218;-49
2021/04/30 00:05:42;;;;;;;10.70;8.90;;;11.70;99.90;;;;;;5056822;28;20182;-48
2021/04/30 00:08:07;;;;;;;11.13;9.73;;;11.80;99.90;;;;;;5058134;28;20306;-45
2021/04/30 00:10:33;;;;;;;10.47;9.37;;;11.80;99.90;;;;;;5056659;28;20260;-47
2021/04/30 00:12:58;;;;;;;12.10;10.23;;;11.90;99.90;;;;;;5063399;28;20626;-45
2021/04/30 00:15:24;;;;;;;11.23;9.70;;;11.90;99.90;;;;;;5076504;28;20166;-43
2021/04/30 00:17:50;;;;;;;11.77;8.63;;;12.00;99.90;;;;;;5071318;28;20570;-51
2021/04/30 00:20:16;;;;;;;10.83;8.90;;;12.00;99.90;;;;;;5056816;28;20179;-43
2021/04/30 00:22:42;;;;;;;9.83;8.50;;;11.90;99.90;;;;;;5059701;28;20210;-46
2021/04/30 00:25:09;;;;;;;13.53;8.37;;;11.90;99.90;;;;;;5075955;28;20632;-46
2021/04/30 00:27:34;;;;;;;10.33;8.60;;;11.90;99.90;;;;;;5075013;28;20214;-45
2021/04/30 00:30:00;;;;;;;9.93;8.03;;;11.80;99.90;;;;;;5076361;28;20202;-43
2021/04/30 00:32:25;;;;;;;9.90;8.60;;;11.80;99.90;;;;;;5064367;28;20187;-46
2021/04/30 00:34:51;;;;;;;11.07;8.50;;;11.80;99.90;;;;;;5075027;28;20177;-42
2021/04/30 00:37:17;;;;;;;11.93;9.17;;;11.80;99.90;;;;;;5075697;28;20251;-48
2021/04/30 00:39:43;;;;;;;9.43;8.07;;;11.80;99.90;;;;;;5075581;28;20194;-42
2021/04/30 00:42:08;;;;;;;8.63;7.73;;;11.80;99.90;;;;;;5065992;28;20179;-46
2021/04/30 00:44:34;;;;;;;12.03;8.90;;;11.70;99.90;;;;;;5056333;28;20175;-42
2021/04/30 00:46:59;;;;;;;11.57;8.90;;;11.70;99.90;;;;;;5074673;28;20194;-42
2021/04/30 00:49:25;;;;;;;11.00;8.60;;;11.60;99.90;;;;;;5076531;28;20178;-45
2021/04/30 00:51:51;;;;;;;11.77;8.70;;;11.60;99.90;;;;;;5074316;28;20206;-50
2021/04/30 00:54:17;;;;;;;11.07;9.10;;;11.60;99.90;;;;;;5076500;28;20257;-48
2021/04/30 00:56:43;;;;;;;10.33;8.27;;;11.70;99.90;;;;;;5058406;28;20203;-47
2021/04/30 00:59:10;;;;;;;10.27;8.27;;;11.60;99.90;;;;;;5076137;28;20178;-45
2021/04/30 01:01:35;;;;;;;11.03;9.13;;;11.60;99.90;;;;;;5059317;28;20186;-46
2021/04/30 01:04:01;;;;;;;9.27;8.20;;;11.60;99.90;;;;;;5055686;28;20175;-45
2021/04/30 01:06:27;;;;;;;8.87;7.97;;;11.50;99.90;;;;;;5069823;28;20217;-45
2021/04/30 01:08:53;;;;;;;9.83;8.87;;;11.50;99.90;;;;;;5075208;28;20212;-56
2021/04/30 01:11:18;;;;;;;9.80;8.80;;;11.50;99.90;;;;;;5062832;28;20206;-47
2021/04/30 01:13:44;;;;;;;11.90;8.93;;;11.50;99.90;;;;;;5055751;28;20273;-42
2021/04/30 01:16:10;;;;;;;11.07;9.17;;;11.40;99.90;;;;;;5065668;28;20202;-42
2021/04/30 01:18:43;;;;;;;11.57;9.67;;;11.50;99.90;;;;;;5075619;28;20179;-43
2021/04/30 01:21:10;;;;;;;10.17;8.60;;;11.50;99.90;;;;;;5065646;28;20233;-50
2021/04/30 01:23:50;;;;;;;9.90;8.90;;;11.60;99.90;;;;;;5055643;28;20179;-49
2021/04/30 01:26:17;;;;;;;10.10;9.00;;;11.60;99.90;;;;;;5056535;28;20241;-45
2021/04/30 01:28:43;;;;;;;10.00;9.00;;;11.70;99.90;;;;;;5055645;28;20182;-45
2021/04/30 01:31:09;;;;;;;10.30;8.47;;;11.80;99.90;;;;;;5064686;28;20202;-48
2021/04/30 01:33:35;;;;;;;12.00;9.00;;;11.80;99.90;;;;;;5074163;28;20175;-46
2021/04/30 01:36:01;;;;;;;10.73;9.63;;;11.90;99.90;;;;;;5055005;28;20206;-46
2021/04/30 01:38:27;;;;;;;10.43;8.77;;;12.00;99.90;;;;;;5064193;28;20201;-47
2021/04/30 01:40:52;;;;;;;11.73;8.90;;;12.10;99.90;;;;;;5067363;28;20186;-49
2021/04/30 01:43:20;;;;;;;9.30;8.37;;;12.20;99.90;;;;;;5073276;28;20174;-50
2021/04/30 01:45:55;;;;;;;9.17;8.10;;;12.30;99.90;;;;;;5057329;28;20282;-43
2021/04/30 01:48:23;;;;;;;11.40;8.80;;;12.40;99.90;;;;;;5037731;28;20639;-46
2021/04/30 01:50:50;;;;;;;10.33;9.23;;;12.50;99.90;;;;;;5055067;28;20286;-42
2021/04/30 01:53:19;;;;;;;11.03;9.67;;;12.50;99.90;;;;;;5070876;28;20526;-49
2021/04/30 01:55:44;;;;;;;10.80;9.60;;;12.30;99.90;;;;;;5074064;28;20199;-46
2021/04/30 01:58:11;;;;;;;12.13;10.40;;;12.20;99.90;;;;;;5059451;28;20245;-50
2021/04/30 02:00:37;;;;;;;10.67;9.37;;;12.10;99.90;;;;;;5053839;28;20585;-42
2021/04/30 02:03:03;;;;;;;10.17;8.93;;;12.20;99.90;;;;;;5068063;28;20181;-42
2021/04/30 02:05:31;;;;;;;11.33;10.17;;;12.20;99.90;;;;;;5074587;28;20171;-53
2021/04/30 02:08:05;;;;;;;10.10;8.97;;;12.20;99.90;;;;;;5061664;28;20175;-46
2021/04/30 02:10:31;;;;;;;10.00;9.00;;;12.20;99.90;;;;;;5054544;28;20263;-46
2021/04/30 02:12:58;;;;;;;11.17;9.97;;;12.20;99.90;;;;;;5066329;28;20170;-46
2021/04/30 02:15:26;;;;;;;11.50;10.00;;;12.30;99.90;;;;;;5074605;28;20182;-52
2021/04/30 02:17:52;;;;;;;12.30;9.67;;;12.30;99.90;;;;;;5073279;28;20200;-54
2021/04/30 02:20:19;;;;;;;12.20;10.13;;;14.60;99.90;;;;;;5058688;28;20190;-45
2021/04/30 02:22:45;;;;;;;15.23;12.43;;;12.20;99.90;;;;;;5063179;28;20185;-49
2021/04/30 02:25:12;;;;;;;14.47;12.37;;;12.10;99.90;;;;;;5074313;28;20550;-42
2021/04/30 02:27:39;;;;;;;14.83;13.17;;;12.10;99.90;;;;;;5070114;28;20194;-42
2021/04/30 02:30:12;;;;;;;13.83;10.77;;;12.10;99.90;;;;;;5054199;28;20206;-49
2021/04/30 02:32:38;;;;;;;15.00;12.20;;;12.00;99.90;;;;;;5060896;28;20170;-54
2021/04/30 02:35:07;;;;;;;13.67;11.57;;;12.00;99.90;;;;;;5074405;28;20190;-52
2021/04/30 02:37:33;;;;;;;15.63;13.90;;;11.90;99.90;;;;;;5068126;28;20199;-56
2021/04/30 02:39:59;;;;;;;13.37;11.97;;;11.80;99.90;;;;;;5054716;28;20185;-45
2021/04/30 02:42:24;;;;;;;13.30;11.83;;;11.80;99.90;;;;;;5057382;28;20179;-49
2021/04/30 02:44:50;;;;;;;13.87;12.47;;;11.80;99.90;;;;;;5066580;28;20258;-46
2021/04/30 02:47:16;;;;;;;15.23;13.50;;;11.80;99.90;;;;;;5055672;28;20191;-42
2021/04/30 02:49:46;;;;;;;16.03;14.40;;;11.80;99.90;;;;;;5073966;28;20186;-48
2021/04/30 02:52:16;;;;;;;15.17;13.73;;;11.70;99.90;;;;;;5072732;28;20627;-43
2021/04/30 02:54:43;;;;;;;16.80;13.33;;;11.80;99.90;;;;;;5054408;28;20167;-51
2021/04/30 02:57:09;;;;;;;13.63;12.20;;;11.80;99.90;;;;;;5053871;28;20190;-50
2021/04/30 02:59:35;;;;;;;15.17;13.63;;;11.80;99.90;;;;;;5054305;28;20183;-45
2021/04/30 03:02:04;;;;;;;14.07;12.47;;;11.80;99.90;;;;;;5053797;28;20175;-52
2021/04/30 03:04:29;;;;;;;15.83;14.13;;;11.80;99.90;;;;;;5072166;28;20237;-46
2021/04/30 03:06:55;;;;;;;15.77;14.17;;;11.70;99.90;;;;;;5073633;28;20195;-48
2021/04/30 03:09:20;;;;;;;15.03;13.43;;;11.70;99.90;;;;;;5057052;28;20174;-44
2021/04/30 03:11:46;;;;;;;15.37;13.87;;;11.80;99.90;;;;;;5054896;28;20328;-50
2021/04/30 03:14:12;;;;;;;18.63;14.97;;;11.60;99.90;;;;;;5072695;28;20206;-48
2021/04/30 03:16:37;;;;;;;16.63;14.93;;;11.60;99.90;;;;;;5073708;28;20190;-46
2021/04/30 03:19:04;;;;;;;16.53;14.87;;;11.60;99.90;;;;;;5060535;28;20249;-45
2021/04/30 03:21:30;;;;;;;15.83;14.13;;;11.70;99.90;;;;;;5053680;28;20614;-48
2021/04/30 03:23:55;;;;;;;16.10;14.27;;;11.70;99.90;;;;;;5064263;28;20681;-48
2021/04/30 03:26:21;;;;;;;17.57;15.73;;;11.70;99.90;;;;;;5073422;28;20206;-51
2021/04/30 03:28:46;;;;;;;15.87;14.17;;;11.80;99.90;;;;;;5018163;28;20582;-49
2021/04/30 03:31:12;;;;;;;15.37;13.63;;;11.90;99.90;;;;;;5062531;28;20547;-52
2021/04/30 03:33:39;;;;;;;18.87;16.90;;;11.90;99.90;;;;;;5074191;28;20202;-42
2021/04/30 03:36:06;;;;;;;16.80;15.00;;;11.90;99.90;;;;;;5065927;28;20194;-53
2021/04/30 03:38:32;;;;;;;16.47;14.50;;;11.90;99.90;;;;;;5057428;28;20194;-46
2021/04/30 03:40:57;;;;;;;16.43;14.73;;;11.90;99.90;;;;;;5057159;28;20179;-42
2021/04/30 03:43:23;;;;;;;17.13;15.33;;;12.00;99.90;;;;;;5057392;28;20669;-48
2021/04/30 03:45:50;;;;;;;15.33;13.83;;;12.10;99.90;;;;;;5076627;28;20209;-48
2021/04/30 03:48:17;;;;;;;15.17;13.67;;;12.20;99.90;;;;;;5077568;28;20526;-43
2021/04/30 03:50:43;;;;;;;14.67;13.17;;;12.20;99.90;;;;;;5059110;28;20207;-50
2021/04/30 03:53:09;;;;;;;15.83;14.33;;;12.30;99.90;;;;;;5056978;28;20600;-50
2021/04/30 03:55:34;;;;;;;17.33;15.43;;;12.30;99.90;;;;;;5073691;28;20182;-50
2021/04/30 03:58:00;;;;;;;13.87;12.47;;;12.30;99.90;;;;;;5077352;28;20181;-49
2021/04/30 04:00:26;;;;;;;14.90;13.03;;;12.20;99.90;;;;;;5062047;28;20190;-41
2021/04/30 04:02:51;;;;;;;14.30;12.80;;;12.30;99.90;;;;;;5073493;28;20182;-43
2021/04/30 04:05:17;;;;;;;13.40;12.00;;;12.40;99.90;;;;;;5076810;28;20183;-49
2021/04/30 04:07:42;;;;;;;13.63;12.23;;;12.40;99.90;;;;;;5065275;28;20203;-42
2021/04/30 04:10:08;;;;;;;13.97;12.43;;;12.50;99.90;;;;;;5060589;28;20255;-43
2021/04/30 04:12:34;;;;;;;13.23;11.93;;;12.60;99.90;;;;;;5076571;28;20633;-50
2021/04/30 04:15:00;;;;;;;13.67;12.27;;;12.70;99.90;;;;;;5074251;28;20181;-43
2021/04/30 04:17:25;;;;;;;17.60;15.13;;;12.70;99.90;;;;;;5056674;28;20558;-48
2021/04/30 04:19:51;;;;;;;17.07;15.30;;;12.60;99.90;;;;;;5056770;28;20181;-43
2021/04/30 04:22:17;;;;;;;13.80;12.40;;;12.60;99.90;;;;;;5072789;28;20543;-51
2021/04/30 04:24:43;;;;;;;13.33;11.87;;;12.50;99.90;;;;;;5055470;28;20908;-51
2021/04/30 04:27:09;;;;;;;13.83;12.40;;;12.60;99.90;;;;;;5075771;28;20634;-42
2021/04/30 04:29:36;;;;;;;16.57;14.97;;;12.50;99.90;;;;;;5075407;28;20308;-42
2021/04/30 04:32:02;;;;;;;16.73;15.00;;;12.50;99.90;;;;;;5058367;28;20206;-45
2021/04/30 04:34:28;;;;;;;17.80;15.20;;;12.30;99.90;;;;;;5060750;28;20643;-42
2021/04/30 04:36:53;;;;;;;14.37;12.97;;;12.20;99.90;;;;;;5055514;28;20207;-46
2021/04/30 04:39:19;;;;;;;15.57;13.97;;;12.20;99.90;;;;;;5056011;28;20198;-46
2021/04/30 04:41:46;;;;;;;17.53;15.50;;;12.20;99.90;;;;;;5059541;28;20281;-47
2021/04/30 04:44:13;;;;;;;14.87;13.47;;;12.20;99.90;;;;;;5075394;28;20245;-42
2021/04/30 04:46:38;;;;;;;16.50;14.63;;;12.20;99.90;;;;;;5072064;28;20199;-52
2021/04/30 04:49:04;;;;;;;15.57;13.47;;;12.30;99.90;;;;;;5055176;28;20194;-45
2021/04/30 04:51:30;;;;;;;16.80;15.10;;;12.40;99.90;;;;;;5058109;28;20571;-48
2021/04/30 04:53:56;;;;;;;16.60;14.90;;;12.30;99.90;;;;;;5061234;28;20187;-52
2021/04/30 04:56:25;;;;;;;17.47;15.17;;;12.20;99.90;;;;;;5069776;28;20593;-53
2021/04/30 04:58:52;;;;;;;18.00;16.17;;;12.20;99.90;;;;;;5055142;28;20213;-46
2021/04/30 05:01:18;;;;;;;14.20;12.70;;;12.20;99.90;;;;;;5056100;28;20186;-45
2021/04/30 05:03:43;;;;;;;16.57;14.27;;;12.10;99.90;;;;;;5037775;28;20175;-42
2021/04/30 05:06:09;;;;;;;13.73;12.30;;;12.00;99.90;;;;;;5054763;28;20207;-56
2021/04/30 05:08:34;;;;;;;13.93;12.57;;;12.10;99.90;;;;;;5067542;28;20183;-44
2021/04/30 05:11:00;;;;;;;14.43;13.00;;;12.10;99.90;;;;;;5057687;28;20276;-50
2021/04/30 05:13:26;;;;;;;13.40;12.10;;;12.20;99.90;;;;;;5058739;28;20212;-47
2021/04/30 05:15:51;;;;;;;13.40;12.10;;;12.20;99.90;;;;;;5066180;28;20190;-49
2021/04/30 05:18:17;;;;;;;12.03;10.77;;;12.30;99.90;;;;;;5075583;28;20178;-42
2021/04/30 05:20:43;;;;;;;13.43;10.93;;;12.40;99.90;;;;;;5058342;28;20177;-46
2021/04/30 05:23:08;;;;;;;12.20;10.97;;;12.60;99.90;;;;;;5055290;28;20171;-49
2021/04/30 05:25:34;;;;;;;11.23;10.03;;;12.80;99.90;;;;;;5054031;28;20583;-52
2021/04/30 05:28:00;;;;;;;11.40;9.83;;;12.80;99.90;;;;;;5055584;28;20254;-56
2021/04/30 05:30:25;;;;;;;10.90;9.77;;;13.00;99.90;;;;;;5054822;28;20209;-44
2021/04/30 05:32:51;;;;;;;10.80;9.70;;;13.10;99.90;;;;;;5068975;28;20166;-45
2021/04/30 05:35:17;;;;;;;10.80;9.70;;;13.20;99.90;;;;;;5061676;28;20178;-50
2021/04/30 05:37:43;;;;;;;10.70;9.60;;;13.30;99.90;;;;;;5063156;28;20217;-45
2021/04/30 05:40:09;;;;;;;9.93;8.97;;;13.50;99.90;;;;;;5071546;28;20178;-43
2021/04/30 05:42:34;;;;;;;11.03;9.93;;;13.60;99.90;;;;;;5064228;28;20716;-45
2021/04/30 05:45:00;;;;;;;12.37;11.17;;;13.60;99.90;;;;;;5057209;28;20187;-55
2021/04/30 05:47:26;;;;;;;11.20;10.10;;;13.60;99.90;;;;;;5061902;28;20205;-42
2021/04/30 05:49:52;;;;;;;11.40;10.30;;;13.60;99.90;;;;;;5073628;28;20182;-46
2021/04/30 05:52:18;;;;;;;12.53;9.80;;;13.50;99.90;;;;;;5068623;28;20181;-45
2021/04/30 05:54:43;;;;;;;12.60;10.20;;;13.50;99.90;;;;;;5072978;28;20167;-51
2021/04/30 05:57:09;;;;;;;14.17;12.80;;;13.40;99.90;;;;;;5065551;28;20253;-48
2021/04/30 05:59:35;;;;;;;15.00;13.53;;;13.40;99.90;;;;;;5068181;28;20170;-46
2021/04/30 06:02:00;;;;;;;13.77;12.40;;;13.30;99.90;;;;;;5057751;28;20202;-47
2021/04/30 06:04:26;;;;;;;12.23;10.97;;;13.20;99.90;;;;;;5053883;28;20516;-44
2021/04/30 06:06:53;;;;;;;13.33;11.87;;;13.20;99.90;;;;;;5056088;28;20221;-48
2021/04/30 06:09:19;;;;;;;11.93;10.83;;;13.10;99.90;;;;;;5055262;28;20175;-45
2021/04/30 06:11:44;;;;;;;12.73;11.43;;;13.20;99.90;;;;;;5053602;28;20374;-44
2021/04/30 06:14:13;;;;;;;13.57;12.17;;;13.10;99.90;;;;;;5054930;28;20247;-41
2021/04/30 06:16:39;;;;;;;13.27;11.87;;;13.00;99.90;;;;;;5054154;28;20559;-46
2021/04/30 06:19:05;;;;;;;14.27;12.80;;;13.00;99.90;;;;;;5053954;28;20175;-44
2021/04/30 06:21:31;;;;;;;13.40;12.00;;;13.00;99.90;;;;;;5054422;28;20183;-45
2021/04/30 06:23:57;;;;;;;13.43;12.10;;;13.00;99.90;;;;;;5054543;28;20180;-48
2021/04/30 06:26:23;;;;;;;14.17;12.77;;;13.00;99.90;;;;;;5054014;28;20183;-45
2021/04/30 06:28:48;;;;;;;13.83;12.53;;;13.00;99.90;;;;;;5054622;28;20255;-50
2021/04/30 06:31:14;;;;;;;14.47;13.07;;;13.70;99.90;;;;;;5054109;28;20231;-44
2021/04/30 06:33:39;;;;;;;13.27;11.97;;;13.20;99.90;;;;;;5054541;28;20619;-43
2021/04/30 06:36:05;;;;;;;13.97;12.47;;;13.30;99.90;;;;;;5053715;28;20269;-46
2021/04/30 06:38:31;;;;;;;13.33;11.90;;;13.30;99.90;;;;;;5053894;28;20281;-47
2021/04/30 06:40:56;;;;;;;13.60;12.23;;;13.50;99.90;;;;;;5054025;28;20550;-48
2021/04/30 06:43:22;;;;;;;12.00;10.83;;;13.50;99.90;;;;;;5054410;28;20279;-41
2021/04/30 06:45:48;;;;;;;12.67;11.37;;;13.50;99.90;;;;;;5060481;28;20210;-48
2021/04/30 06:48:13;;;;;;;13.67;11.53;;;13.60;99.90;;;;;;5063656;28;20222;-40
2021/04/30 06:50:39;;;;;;;12.57;11.37;;;13.80;99.90;;;;;;5061909;28;20237;-43
2021/04/30 06:53:04;;;;;;;13.03;11.73;;;14.00;99.90;;;;;;5062245;28;20174;-44
2021/04/30 06:55:30;;;;;;;14.23;12.77;;;14.00;99.90;;;;;;5064091;28;20547;-50
2021/04/30 06:57:55;;;;;;;12.30;11.10;;;14.10;99.90;;;;;;5064653;28;20176;-53
2021/04/30 07:00:21;;;;;;;13.13;11.87;;;14.20;99.90;;;;;;5064593;28;20185;-44
2021/04/30 07:02:47;;;;;;;12.63;11.30;;;14.40;99.90;;;;;;5062357;28;20173;-48
2021/04/30 07:05:13;;;;;;;13.13;11.83;;;14.50;99.90;;;;;;5065306;28;20187;-46
2021/04/30 07:07:39;;;;;;;11.37;10.27;;;14.50;99.90;;;;;;5062279;28;20203;-45
2021/04/30 07:10:06;;;;;;;14.00;11.40;;;14.60;99.90;;;;;;5046210;28;20725;-45
2021/04/30 07:12:32;;;;;;;12.20;11.10;;;14.60;99.90;;;;;;5062563;28;20532;-47
2021/04/30 07:14:57;;;;;;;12.97;11.70;;;14.40;99.90;;;;;;5063025;28;20646;-48
2021/04/30 07:17:23;;;;;;;12.50;11.30;;;14.20;99.90;;;;;;5064020;28;20542;-50
2021/04/30 07:19:48;;;;;;;11.17;10.17;;;14.30;99.90;;;;;;5062508;28;20252;-48
2021/04/30 07:22:14;;;;;;;12.07;10.97;;;14.30;99.90;;;;;;5063128;28;20172;-46
2021/04/30 07:24:41;;;;;;;11.50;10.40;;;14.30;99.90;;;;;;5060897;28;20591;-50
2021/04/30 07:27:07;;;;;;;12.40;10.13;;;14.30;99.90;;;;;;5062194;28;20215;-41
2021/04/30 07:29:34;;;;;;;11.80;10.60;;;14.30;99.90;;;;;;5059901;28;20173;-51
2021/04/30 07:32:00;;;;;;;12.07;10.87;;;14.50;99.90;;;;;;5061314;28;20203;-50
2021/04/30 07:34:26;;;;;;;12.03;10.83;;;14.60;99.90;;;;;;5069661;28;20208;-48
2021/04/30 07:36:51;;;;;;;11.13;10.03;;;14.60;99.90;;;;;;5067162;28;20213;-45
2021/04/30 07:39:17;;;;;;;12.13;10.93;;;14.70;99.90;;;;;;5061175;28;20292;-46
2021/04/30 07:41:43;;;;;;;12.90;11.70;;;14.80;99.90;;;;;;5062349;28;20191;-51
2021/04/30 07:44:09;;;;;;;12.47;11.07;;;14.70;99.90;;;;;;5051029;28;20178;-48
2021/04/30 07:46:34;;;;;;;13.43;11.53;;;14.80;99.90;;;;;;5062532;28;20208;-48
2021/04/30 07:49:00;;;;;;;12.20;11.00;;;14.90;99.90;;;;;;5071192;28;20246;-48
2021/04/30 07:51:25;;;;;;;13.10;11.80;;;14.90;99.90;;;;;;5045534;28;20199;-47
2021/04/30 07:53:51;;;;;;;12.00;10.70;;;15.00;99.90;;;;;;5065822;28;20251;-45
2021/04/30 07:56:16;;;;;;;12.07;10.97;;;15.20;99.90;;;;;;5070550;28;20252;-42
2021/04/30 07:58:42;;;;;;;11.93;10.77;;;15.40;99.90;;;;;;5068537;28;20190;-51
2021/04/30 08:01:07;;;;;;;9.97;8.97;;;15.70;99.90;;;;;;5067868;28;20179;-50
2021/04/30 08:03:33;;;;;;;12.07;10.87;;;16.20;99.90;;;;;;5074200;28;20171;-43
2021/04/30 08:05:59;;;;;;;10.53;9.53;;;16.70;99.90;;;;;;5067228;28;20222;-45
2021/04/30 08:08:24;;;;;;;11.63;10.47;;;17.00;99.90;;;;;;5062752;28;20631;-49
2021/04/30 08:10:50;;;;;;;11.60;10.57;;;17.30;99.90;;;;;;5066718;28;20222;-41
2021/04/30 08:13:16;;;;;;;10.97;9.90;;;17.20;99.90;;;;;;5073501;28;20166;-41
2021/04/30 08:15:41;;;;;;;10.57;9.47;;;17.10;99.90;;;;;;5092093;28;20638;-46
2021/04/30 08:18:07;;;;;;;11.67;10.47;;;17.20;99.90;;;;;;5088207;28;20646;-45
2021/04/30 08:20:33;;;;;;;10.70;9.70;;;17.00;99.90;;;;;;5068282;28;20253;-41
2021/04/30 08:22:59;;;;;;;11.10;10.00;;;17.00;99.90;;;;;;5048936;28;20182;-46
2021/04/30 08:25:25;;;;;;;11.57;10.43;;;17.20;99.90;;;;;;5065646;28;20175;-45
2021/04/30 08:27:51;;;;;;;11.57;10.43;;;17.50;99.90;;;;;;5065788;28;20195;-45
2021/04/30 08:30:17;;;;;;;12.17;11.07;;;17.50;99.90;;;;;;5067029;28;20188;-45
2021/04/30 08:32:42;;;;;;;11.57;10.47;;;17.50;99.90;;;;;;5064851;28;20229;-46
2021/04/30 08:35:08;;;;;;;11.30;10.30;;;17.40;99.90;;;;;;5066280;28;20312;-47
2021/04/30 08:37:34;;;;;;;12.70;11.03;;;17.40;99.90;;;;;;5074758;28;20202;-44
2021/04/30 08:40:00;;;;;;;12.03;10.83;;;17.30;99.90;;;;;;5077247;28;20510;-42
2021/04/30 08:42:27;;;;;;;10.77;9.77;;;17.20;99.90;;;;;;5085064;28;20176;-50
2021/04/30 08:44:53;;;;;;;12.17;10.30;;;17.40;99.90;;;;;;5088398;28;20541;-45
2021/04/30 08:47:20;;;;;;;10.13;9.10;;;17.70;99.90;;;;;;5096624;28;20242;-49
2021/04/30 08:49:47;;;;;;;10.47;9.47;;;17.90;99.90;;;;;;5096282;28;20177;-42
2021/04/30 08:52:13;;;;;;;11.63;10.53;;;18.00;99.90;;;;;;5084756;28;20182;-47
2021/04/30 08:54:41;;;;;;;10.17;9.27;;;18.20;99.90;;;;;;5056299;28;20178;-50
2021/04/30 08:57:10;;;;;;;11.07;9.70;;;18.50;99.90;;;;;;5073314;28;20265;-44
2021/04/30 08:59:36;;;;;;;11.03;9.93;;;18.60;99.90;;;;;;5085150;28;20192;-46
2021/04/30 09:02:02;;;;;;;10.90;9.70;;;18.30;99.90;;;;;;5075424;28;20191;-46
2021/04/30 09:04:32;;;;;;;9.70;8.80;;;18.40;99.90;;;;;;5091424;28;20182;-47
2021/04/30 09:07:11;;;;;;;9.77;8.77;;;18.40;99.90;;;;;;5082359;28;20189;-48
2021/04/30 09:09:54;;;;;;;9.63;8.77;;;18.50;99.90;;;;;;5078245;28;20204;-45
2021/04/30 09:12:21;;;;;;;9.80;8.90;;;18.70;99.90;;;;;;5091762;28;20517;-45
2021/04/30 09:14:47;;;;;;;10.87;9.50;;;19.00;99.90;;;;;;5072559;28;20682;-46
2021/04/30 09:17:15;;;;;;;9.23;8.20;;;19.00;99.90;;;;;;5068540;28;20182;-46
2021/04/30 09:19:55;;;;;;;9.60;8.60;;;19.20;99.90;;;;;;5071594;28;20562;-48
2021/04/30 09:22:32;;;;;;;9.40;8.40;;;19.20;99.90;;;;;;5071129;28;20229;-42
2021/04/30 09:24:59;;;;;;;9.47;8.47;;;19.00;99.90;;;;;;5076680;28;20602;-49
2021/04/30 09:27:39;;;;;;;9.70;8.70;;;19.20;99.90;;;;;;5088240;28;20205;-47
2021/04/30 09:30:25;;;;;;;7.93;7.13;;;19.20;99.90;;;;;;5086203;28;20172;-42
2021/04/30 09:33:12;;;;;;;8.47;7.67;;;19.40;99.90;;;;;;5078011;28;20181;-46
2021/04/30 09:35:46;;;;;;;8.03;7.23;;;19.70;99.60;;;;;;5086188;28;20581;-42
2021/04/30 09:38:24;;;;;;;8.47;7.67;;;19.70;99.90;;;;;;5086744;28;20190;-52
2021/04/30 09:40:52;;;;;;;8.43;7.73;;;19.90;99.70;;;;;;5082859;28;20205;-46
2021/04/30 09:43:18;;;;;;;8.77;7.97;;;19.80;99.60;;;;;;5084232;28;20170;-46
2021/04/30 09:45:45;;;;;;;9.10;8.27;;;20.00;99.80;;;;;;5073660;28;20591;-50
2021/04/30 09:48:12;;;;;;;9.80;8.80;;;19.70;99.90;;;;;;5089608;28;20557;-48
2021/04/30 09:50:40;;;;;;;8.47;7.67;;;19.50;98.90;;;;;;5092736;28;20235;-44
2021/04/30 09:53:12;;;;;;;8.30;7.50;;;20.80;99.90;;;;;;5093573;28;20170;-51
2021/04/30 09:55:49;;;;;;;8.90;8.10;;;19.40;99.90;;;;;;5095384;28;20174;-44
2021/04/30 09:58:26;;;;;;;9.27;8.37;;;19.40;99.90;;;;;;5095035;28;20169;-42
2021/04/30 10:00:54;;;;;;;8.33;7.63;;;19.30;99.90;;;;;;5094851;28;20189;-43
2021/04/30 10:03:25;;;;;;;8.57;7.70;;;18.90;99.90;;;;;;5095016;28;20221;-46
2021/04/30 10:06:13;;;;;;;9.40;7.93;;;18.60;99.90;;;;;;5095016;28;20204;-49
2021/04/30 10:08:40;;;;;;;8.43;7.50;;;18.60;99.90;;;;;;5094453;28;20555;-46
2021/04/30 10:11:30;;;;;;;8.23;7.43;;;18.80;99.90;;;;;;5094598;28;20216;-43
2021/04/30 10:13:56;;;;;;;7.57;6.87;;;19.00;99.70;;;;;;5094997;28;20170;-50
2021/04/30 10:16:21;;;;;;;7.37;6.73;;;19.00;99.90;;;;;;5094744;28;20238;-48
2021/04/30 10:18:47;;;;;;;8.07;6.83;;;19.30;99.90;;;;;;5094635;28;20216;-46
2021/04/30 10:21:13;;;;;;;8.50;7.73;;;19.40;99.30;;;;;;5094351;28;20166;-49
2021/04/30 10:23:46;;;;;;;7.80;7.00;;;19.40;99.80;;;;;;5094568;28;20260;-45
2021/04/30 10:26:16;;;;;;;8.63;6.90;;;19.40;99.90;;;;;;5094520;28;20300;-46
2021/04/30 10:28:52;;;;;;;6.83;6.23;;;19.30;99.90;;;;;;5094856;28;20170;-50
2021/04/30 10:31:44;;;;;;;7.43;6.33;;;19.40;99.90;;;;;;5094509;28;20204;-42
2021/04/30 10:34:25;;;;;;;8.00;6.67;;;19.50;99.90;;;;;;5090163;28;20174;-55
2021/04/30 10:36:56;;;;;;;6.10;5.60;;;19.50;99.60;;;;;;5094539;28;20560;-46
2021/04/30 10:39:33;;;;;;;6.00;5.47;;;19.70;99.90;;;;;;5093986;28;20197;-48
2021/04/30 10:42:13;;;;;;;5.70;5.20;;;19.90;99.90;;;;;;5093138;28;20523;-44
2021/04/30 10:44:44;;;;;;;4.97;4.57;;;19.80;99.10;;;;;;5094584;28;20169;-45
2021/04/30 10:47:14;;;;;;;6.40;5.80;;;20.00;99.60;;;;;;5094304;28;20277;-52
2021/04/30 10:49:41;;;;;;;5.97;5.37;;;20.20;97.40;;;;;;5094229;28;20166;-47
2021/04/30 10:54:34;;;;;;;5.60;5.10;;;20.40;98.50;;;;;;5093804;28;20177;-45
2021/04/30 10:57:04;;;;;;;6.03;5.43;;;20.80;96.80;;;;;;5093706;28;20246;-44
2021/04/30 10:59:35;;;;;;;5.45;4.95;;;21.20;96.70;;;;;;5094245;28;20619;-53
2021/04/30 11:02:09;;;;;;;4.65;4.25;;;20.90;96.10;;;;;;5093730;28;20243;-45
2021/04/30 11:04:34;;;;;;;5.07;4.57;;;21.20;98.90;;;;;;5094304;28;20180;-45
2021/04/30 11:07:00;;;;;;;5.60;5.10;;;21.60;98.60;;;;;;5093676;28;20205;-52
2021/04/30 11:09:39;;;;;;;6.30;5.70;;;21.90;97.80;;;;;;5093838;28;20256;-44
2021/04/30 11:12:17;;;;;;;6.40;5.57;;;21.90;95.30;;;;;;5093496;28;20202;-48
2021/04/30 11:15:06;;;;;;;5.75;5.25;;;21.80;96.00;;;;;;5093991;28;20168;-47
2021/04/30 11:18:01;;;;;;;5.05;4.65;;;21.30;95.70;;;;;;5094394;28;20220;-48
2021/04/30 11:20:32;;;;;;;5.45;4.95;;;21.60;96.40;;;;;;5094005;28;20518;-45
2021/04/30 11:23:17;;;;;;;6.63;5.30;;;21.80;95.40;;;;;;5094065;28;20254;-46
2021/04/30 11:25:57;;;;;;;5.50;5.00;;;21.50;95.50;;;;;;5093582;28;20553;-48
2021/04/30 11:28:43;;;;;;;6.13;5.57;;;21.60;96.70;;;;;;5094202;28;20237;-45
2021/04/30 11:31:33;;;;;;;5.32;4.82;;;21.40;95.20;;;;;;5076198;28;20730;-43
2021/04/30 11:34:20;;;;;;;5.60;5.10;;;21.60;95.90;;;;;;5092892;28;20193;-47
2021/04/30 11:36:57;;;;;;;5.70;4.72;;;22.00;95.70;;;;;;5093470;28;20669;-46
2021/04/30 11:39:28;;;;;;;5.60;5.10;;;22.50;96.40;;;;;;5093807;28;20189;-50
2021/04/30 11:42:00;;;;;;;5.10;4.57;;;22.40;95.80;;;;;;5093526;28;20208;-53
2021/04/30 11:44:26;;;;;;;6.10;5.50;;;22.30;95.70;;;;;;5093738;28;20189;-51
2021/04/30 11:47:04;;;;;;;5.07;4.57;;;21.90;94.10;;;;;;5093498;28;20189;-48
2021/04/30 11:49:32;;;;;;;5.68;5.18;;;21.70;95.60;;;;;;5093773;28;20181;-41
2021/04/30 11:51:57;;;;;;;6.53;5.88;;;21.80;94.60;;;;;;5093278;28;20215;-48
2021/04/30 11:54:35;;;;;;;5.13;4.70;;;21.70;94.30;;;;;;5097882;28;20167;-48
2021/04/30 11:57:12;;;;;;;8.77;5.45;;;21.40;96.00;;;;;;5097258;28;20188;-44
2021/04/30 11:59:40;;;;;;;5.55;5.05;;;21.40;95.20;;;;;;5097419;28;20181;-51
2021/04/30 12:02:07;;;;;;;5.55;4.80;;;21.60;95.40;;;;;;5096804;28;20548;-44
2021/04/30 12:04:49;;;;;;;4.80;4.30;;;21.30;95.40;;;;;;5097459;28;20562;-42
2021/04/30 12:07:16;;;;;;;5.45;4.95;;;21.50;95.70;;;;;;5097223;28;20199;-45
2021/04/30 12:09:42;;;;;;;5.50;5.00;;;21.60;94.20;;;;;;5097374;28;20172;-44
2021/04/30 12:12:20;;;;;;;5.40;4.55;;;21.50;94.90;;;;;;5097207;28;20204;-47
2021/04/30 12:14:58;;;;;;;4.45;4.05;;;21.50;95.70;;;;;;5097431;28;20184;-51
2021/04/30 12:17:36;;;;;;;4.63;4.22;;;21.90;96.00;;;;;;5096231;28;20302;-51
2021/04/30 12:20:20;;;;;;;5.10;4.10;;;22.10;95.50;;;;;;5097048;28;20173;-45
2021/04/30 12:22:54;;;;;;;4.70;4.30;;;22.40;95.40;;;;;;5078789;28;20223;-47
2021/04/30 12:25:25;;;;;;;4.10;3.80;;;22.90;95.20;;;;;;5096778;28;20181;-47
2021/04/30 12:27:51;;;;;;;5.20;4.80;;;23.10;94.10;;;;;;5097353;28;20174;-45
2021/04/30 12:30:29;;;;;;;5.65;4.88;;;23.00;92.70;;;;;;5096641;28;20595;-42
2021/04/30 12:32:56;;;;;;;5.32;4.85;;;22.40;93.10;;;;;;5096820;28;20293;-51
2021/04/30 12:35:22;;;;;;;4.22;3.80;;;22.00;93.20;;;;;;5097088;28;20178;-50
2021/04/30 12:37:48;;;;;;;4.18;3.88;;;22.10;96.10;;;;;;5096714;28;20220;-43
2021/04/30 12:40:14;;;;;;;4.40;4.00;;;22.60;95.20;;;;;;5096630;28;20170;-44
2021/04/30 12:42:47;;;;;;;4.15;3.40;;;23.20;93.50;;;;;;5096819;28;20773;-47